sensor_id;sensor_type;location;lat;lon;timestamp;pressure;altitude;pressure_sealevel;temperature;humidity
12077;BME280;12420;42.676;23.262;2023-02-26T00:00:11;93368.72;;;14.76;51.77
12077;BME280;12420;42.676;23.262;2023-02-26T00:02:39;93335.16;;;14.64;52.29
12077;BME280;12420;42.676;23.262;2023-02-26T00:05:08;93376.47;;;14.68;51.20
12077;BME280;12420;42.676;23.262;2023-02-26T00:07:35;93371.66;;;14.68;52.03
12077;BME280;12420;42.676;23.262;2023-02-26T00:10:02;93376.34;;;14.66;53.82
12077;BME280;12420;42.676;23.262;2023-02-26T00:12:30;93340.56;;;14.72;53.55
12077;BME280;12420;42.676;23.262;2023-02-26T00:14:58;93368.56;;;14.64;52.46
12077;BME280;12420;42.676;23.262;2023-02-26T00:17:31;93351.28;;;14.56;52.71
12077;BME280;12420;42.676;23.262;2023-02-26T00:19:59;93347.16;;;14.67;51.85
12077;BME280;12420;42.676;23.262;2023-02-26T00:22:28;93358.75;;;14.73;51.50
12077;BME280;12420;42.676;23.262;2023-02-26T00:24:55;93352.16;;;14.68;50.97
12077;BME280;12420;42.676;23.262;2023-02-26T00:27:22;93311.28;;;14.71;48.53
12077;BME280;12420;42.676;23.262;2023-02-26T00:29:49;93341.75;;;14.69;49.71
12077;BME280;12420;42.676;23.262;2023-02-26T00:32:16;93339.13;;;14.71;49.84
12077;BME280;12420;42.676;23.262;2023-02-26T00:34:44;93355.81;;;14.71;51.35
12077;BME280;12420;42.676;23.262;2023-02-26T00:37:21;93312.16;;;14.73;51.39
12077;BME280;12420;42.676;23.262;2023-02-26T00:40:00;93327.09;;;14.68;49.37
12077;BME280;12420;42.676;23.262;2023-02-26T00:42:31;93319.78;;;14.63;52.35
12077;BME280;12420;42.676;23.262;2023-02-26T00:44:58;93336.75;;;14.58;52.09
12077;BME280;12420;42.676;23.262;2023-02-26T00:47:29;93337.91;;;14.54;51.94
12077;BME280;12420;42.676;23.262;2023-02-26T00:50:13;93336.31;;;14.61;50.55
12077;BME280;12420;42.676;23.262;2023-02-26T00:52:46;93335.00;;;14.62;50.72
12077;BME280;12420;42.676;23.262;2023-02-26T00:55:17;93287.78;;;14.45;50.62
12077;BME280;12420;42.676;23.262;2023-02-26T00:57:44;93327.69;;;14.67;49.93
12077;BME280;12420;42.676;23.262;2023-02-26T01:00:12;93325.03;;;14.69;50.05
12077;BME280;12420;42.676;23.262;2023-02-26T01:02:40;93322.41;;;14.61;50.83
12077;BME280;12420;42.676;23.262;2023-02-26T01:05:09;93326.50;;;14.60;48.93
12077;BME280;12420;42.676;23.262;2023-02-26T01:07:40;93329.28;;;14.60;50.46
12077;BME280;12420;42.676;23.262;2023-02-26T01:10:10;93300.13;;;14.61;50.32
12077;BME280;12420;42.676;23.262;2023-02-26T01:12:40;93316.09;;;14.61;49.79
12077;BME280;12420;42.676;23.262;2023-02-26T01:15:08;93322.25;;;14.59;50.21
12077;BME280;12420;42.676;23.262;2023-02-26T01:17:40;93302.91;;;14.61;49.00
12077;BME280;12420;42.676;23.262;2023-02-26T01:20:14;93309.16;;;14.52;50.22
12077;BME280;12420;42.676;23.262;2023-02-26T01:22:47;93293.06;;;14.60;50.24
12077;BME280;12420;42.676;23.262;2023-02-26T01:25:20;93291.63;;;14.59;49.05
12077;BME280;12420;42.676;23.262;2023-02-26T01:27:49;93276.66;;;14.35;49.60
12077;BME280;12420;42.676;23.262;2023-02-26T01:30:17;93279.72;;;14.49;49.89
12077;BME280;12420;42.676;23.262;2023-02-26T01:32:47;93272.25;;;14.51;49.18
12077;BME280;12420;42.676;23.262;2023-02-26T01:35:22;93271.53;;;14.51;48.99
12077;BME280;12420;42.676;23.262;2023-02-26T01:38:00;93261.00;;;14.59;49.38
12077;BME280;12420;42.676;23.262;2023-02-26T01:43:53;93246.63;;;14.33;49.26
12077;BME280;12420;42.676;23.262;2023-02-26T01:46:28;93272.13;;;14.59;48.36
12077;BME280;12420;42.676;23.262;2023-02-26T01:48:58;93269.19;;;14.57;48.43
12077;BME280;12420;42.676;23.262;2023-02-26T01:51:45;93272.97;;;14.52;48.37
12077;BME280;12420;42.676;23.262;2023-02-26T01:54:15;93264.09;;;14.53;48.70
12077;BME280;12420;42.676;23.262;2023-02-26T01:56:42;93253.81;;;14.56;48.23
12077;BME280;12420;42.676;23.262;2023-02-26T01:59:13;93244.56;;;14.44;48.78
12077;BME280;12420;42.676;23.262;2023-02-26T02:01:41;93254.38;;;14.45;48.64
12077;BME280;12420;42.676;23.262;2023-02-26T02:04:11;93237.25;;;14.39;47.67
12077;BME280;12420;42.676;23.262;2023-02-26T02:06:38;93226.25;;;14.21;47.89
12077;BME280;12420;42.676;23.262;2023-02-26T02:09:06;93243.25;;;14.35;48.21
12077;BME280;12420;42.676;23.262;2023-02-26T02:11:34;93245.00;;;14.30;48.39
12077;BME280;12420;42.676;23.262;2023-02-26T02:14:14;93218.34;;;14.37;47.81
12077;BME280;12420;42.676;23.262;2023-02-26T02:16:47;93228.59;;;14.34;48.38
12077;BME280;12420;42.676;23.262;2023-02-26T02:19:48;93250.72;;;14.32;48.04
12077;BME280;12420;42.676;23.262;2023-02-26T02:22:45;93237.38;;;14.31;47.39
12077;BME280;12420;42.676;23.262;2023-02-26T02:25:36;93193.91;;;14.26;48.47
12077;BME280;12420;42.676;23.262;2023-02-26T02:28:18;93230.78;;;14.26;48.08
12077;BME280;12420;42.676;23.262;2023-02-26T02:31:04;93196.09;;;14.27;48.07
12077;BME280;12420;42.676;23.262;2023-02-26T02:33:35;93234.19;;;14.25;48.23
12077;BME280;12420;42.676;23.262;2023-02-26T02:36:08;93195.78;;;14.23;47.96
12077;BME280;12420;42.676;23.262;2023-02-26T02:38:41;93205.31;;;14.20;48.29
12077;BME280;12420;42.676;23.262;2023-02-26T02:41:14;93234.75;;;14.14;48.18
12077;BME280;12420;42.676;23.262;2023-02-26T02:43:44;93224.06;;;14.29;47.89
12077;BME280;12420;42.676;23.262;2023-02-26T02:46:16;93233.88;;;14.30;47.90
12077;BME280;12420;42.676;23.262;2023-02-26T02:48:47;93217.19;;;14.30;47.72
12077;BME280;12420;42.676;23.262;2023-02-26T02:51:19;93244.25;;;14.40;47.11
12077;BME280;12420;42.676;23.262;2023-02-26T02:53:50;93242.50;;;14.34;47.54
12077;BME280;12420;42.676;23.262;2023-02-26T02:56:22;93252.50;;;14.38;47.11
12077;BME280;12420;42.676;23.262;2023-02-26T02:58:52;93235.63;;;14.36;46.59
12077;BME280;12420;42.676;23.262;2023-02-26T03:01:24;93251.88;;;14.29;47.30
12077;BME280;12420;42.676;23.262;2023-02-26T03:03:56;93231.97;;;14.23;47.51
12077;BME280;12420;42.676;23.262;2023-02-26T03:06:24;93192.44;;;14.15;47.03
12077;BME280;12420;42.676;23.262;2023-02-26T03:08:51;93238.84;;;14.32;46.81
12077;BME280;12420;42.676;23.262;2023-02-26T03:11:18;93192.72;;;14.00;46.37
12077;BME280;12420;42.676;23.262;2023-02-26T03:13:46;93229.91;;;14.14;46.47
12077;BME280;12420;42.676;23.262;2023-02-26T03:16:30;93206.19;;;13.94;46.87
12077;BME280;12420;42.676;23.262;2023-02-26T03:19:04;93196.19;;;13.71;47.17
12077;BME280;12420;42.676;23.262;2023-02-26T03:21:38;93242.78;;;14.19;46.22
12077;BME280;12420;42.676;23.262;2023-02-26T03:24:15;93234.03;;;14.13;46.13
12077;BME280;12420;42.676;23.262;2023-02-26T03:26:47;93245.75;;;14.41;45.92
12077;BME280;12420;42.676;23.262;2023-02-26T03:29:21;93271.81;;;14.36;46.36
12077;BME280;12420;42.676;23.262;2023-02-26T03:31:54;93231.69;;;14.29;46.64
12077;BME280;12420;42.676;23.262;2023-02-26T03:34:26;93244.13;;;14.28;46.66
12077;BME280;12420;42.676;23.262;2023-02-26T03:36:58;93254.09;;;14.31;46.92
12077;BME280;12420;42.676;23.262;2023-02-26T03:39:31;93246.19;;;14.27;47.23
12077;BME280;12420;42.676;23.262;2023-02-26T03:42:03;93228.00;;;13.97;48.37
12077;BME280;12420;42.676;23.262;2023-02-26T03:44:33;93257.00;;;14.14;48.11
12077;BME280;12420;42.676;23.262;2023-02-26T03:47:05;93254.06;;;14.21;48.55
12077;BME280;12420;42.676;23.262;2023-02-26T03:49:35;93249.84;;;14.20;48.92
12077;BME280;12420;42.676;23.262;2023-02-26T03:52:04;93225.53;;;14.11;49.17
12077;BME280;12420;42.676;23.262;2023-02-26T03:54:36;93236.06;;;14.03;50.31
12077;BME280;12420;42.676;23.262;2023-02-26T03:57:04;93234.16;;;14.05;49.84
12077;BME280;12420;42.676;23.262;2023-02-26T03:59:32;93215.25;;;14.04;50.07
12077;BME280;12420;42.676;23.262;2023-02-26T04:02:03;93222.28;;;13.95;50.18
12077;BME280;12420;42.676;23.262;2023-02-26T04:04:33;93221.69;;;13.97;50.57
12077;BME280;12420;42.676;23.262;2023-02-26T04:07:06;93202.97;;;13.97;50.11
12077;BME280;12420;42.676;23.262;2023-02-26T04:09:34;93233.44;;;14.05;50.12
12077;BME280;12420;42.676;23.262;2023-02-26T04:12:01;93237.50;;;14.04;50.18
12077;BME280;12420;42.676;23.262;2023-02-26T04:14:28;93217.47;;;14.05;50.18
12077;BME280;12420;42.676;23.262;2023-02-26T04:16:55;93214.25;;;13.99;50.79
12077;BME280;12420;42.676;23.262;2023-02-26T04:19:23;93224.19;;;13.93;50.08
12077;BME280;12420;42.676;23.262;2023-02-26T04:21:50;93200.91;;;13.98;49.74
12077;BME280;12420;42.676;23.262;2023-02-26T04:24:16;93208.69;;;14.09;48.79
12077;BME280;12420;42.676;23.262;2023-02-26T04:26:43;93216.59;;;14.13;48.62
12077;BME280;12420;42.676;23.262;2023-02-26T04:29:10;93182.63;;;13.95;49.09
12077;BME280;12420;42.676;23.262;2023-02-26T04:31:37;93199.91;;;14.03;49.13
12077;BME280;12420;42.676;23.262;2023-02-26T04:34:04;93193.31;;;14.08;49.00
12077;BME280;12420;42.676;23.262;2023-02-26T04:36:32;93187.31;;;14.02;48.63
12077;BME280;12420;42.676;23.262;2023-02-26T04:38:59;93183.34;;;14.05;48.76
12077;BME280;12420;42.676;23.262;2023-02-26T04:41:26;93198.56;;;14.04;48.43
12077;BME280;12420;42.676;23.262;2023-02-26T04:43:52;93181.47;;;14.07;48.66
12077;BME280;12420;42.676;23.262;2023-02-26T04:46:19;93185.25;;;14.02;47.98
12077;BME280;12420;42.676;23.262;2023-02-26T04:48:46;93153.19;;;13.92;47.57
12077;BME280;12420;42.676;23.262;2023-02-26T04:51:13;93158.47;;;14.07;47.24
12077;BME280;12420;42.676;23.262;2023-02-26T04:53:41;93171.34;;;14.12;46.71
12077;BME280;12420;42.676;23.262;2023-02-26T04:56:08;93181.59;;;14.09;45.80
12077;BME280;12420;42.676;23.262;2023-02-26T04:58:35;93170.03;;;14.03;45.72
12077;BME280;12420;42.676;23.262;2023-02-26T05:01:02;93178.06;;;14.09;45.29
12077;BME280;12420;42.676;23.262;2023-02-26T05:03:38;93130.34;;;14.13;45.45
12077;BME280;12420;42.676;23.262;2023-02-26T05:06:06;93109.84;;;14.08;44.72
12077;BME280;12420;42.676;23.262;2023-02-26T05:08:33;93143.22;;;14.27;44.43
12077;BME280;12420;42.676;23.262;2023-02-26T05:11:01;93110.56;;;14.18;44.23
12077;BME280;12420;42.676;23.262;2023-02-26T05:13:27;93137.66;;;14.27;44.90
12077;BME280;12420;42.676;23.262;2023-02-26T05:15:54;93115.41;;;14.27;45.16
12077;BME280;12420;42.676;23.262;2023-02-26T05:18:21;93122.56;;;14.30;44.37
12077;BME280;12420;42.676;23.262;2023-02-26T05:20:51;93109.69;;;14.25;44.08
12077;BME280;12420;42.676;23.262;2023-02-26T05:23:18;93127.25;;;14.28;44.77
12077;BME280;12420;42.676;23.262;2023-02-26T05:25:44;93120.97;;;14.27;43.88
12077;BME280;12420;42.676;23.262;2023-02-26T05:28:13;93073.84;;;14.10;44.41
12077;BME280;12420;42.676;23.262;2023-02-26T05:30:40;93127.53;;;14.32;43.87
12077;BME280;12420;42.676;23.262;2023-02-26T05:33:07;93119.00;;;14.40;43.95
12077;BME280;12420;42.676;23.262;2023-02-26T05:35:34;93117.72;;;14.41;43.38
12077;BME280;12420;42.676;23.262;2023-02-26T05:38:00;93098.81;;;14.29;42.78
12077;BME280;12420;42.676;23.262;2023-02-26T05:40:27;93075.09;;;14.38;43.13
12077;BME280;12420;42.676;23.262;2023-02-26T05:42:54;93095.84;;;14.47;42.85
12077;BME280;12420;42.676;23.262;2023-02-26T05:45:22;93102.75;;;14.56;42.85
12077;BME280;12420;42.676;23.262;2023-02-26T05:47:49;93092.19;;;14.64;42.56
12077;BME280;12420;42.676;23.262;2023-02-26T05:50:16;93102.16;;;14.57;42.53
12077;BME280;12420;42.676;23.262;2023-02-26T05:52:42;93084.09;;;14.68;41.54
12077;BME280;12420;42.676;23.262;2023-02-26T05:55:09;93131.72;;;14.72;41.33
12077;BME280;12420;42.676;23.262;2023-02-26T05:57:36;93105.16;;;14.81;40.34
12077;BME280;12420;42.676;23.262;2023-02-26T06:00:04;93101.03;;;14.91;40.71
12077;BME280;12420;42.676;23.262;2023-02-26T06:02:34;93072.84;;;14.97;39.96
12077;BME280;12420;42.676;23.262;2023-02-26T06:05:01;93097.72;;;15.05;39.32
12077;BME280;12420;42.676;23.262;2023-02-26T06:07:27;93132.03;;;15.07;39.42
12077;BME280;12420;42.676;23.262;2023-02-26T06:09:55;93137.75;;;15.09;39.08
12077;BME280;12420;42.676;23.262;2023-02-26T06:12:21;93123.16;;;15.20;39.00
12077;BME280;12420;42.676;23.262;2023-02-26T06:14:48;93136.16;;;15.06;38.31
12077;BME280;12420;42.676;23.262;2023-02-26T06:17:15;93142.16;;;15.34;38.53
12077;BME280;12420;42.676;23.262;2023-02-26T06:19:43;93163.97;;;15.47;37.78
12077;BME280;12420;42.676;23.262;2023-02-26T06:22:10;93148.41;;;15.44;38.18
12077;BME280;12420;42.676;23.262;2023-02-26T06:24:37;93154.84;;;15.47;38.03
12077;BME280;12420;42.676;23.262;2023-02-26T06:27:03;93153.78;;;15.52;37.89
12077;BME280;12420;42.676;23.262;2023-02-26T06:29:30;93151.63;;;15.50;37.62
12077;BME280;12420;42.676;23.262;2023-02-26T06:31:58;93145.31;;;15.50;37.72
12077;BME280;12420;42.676;23.262;2023-02-26T06:34:24;93148.31;;;15.63;37.21
12077;BME280;12420;42.676;23.262;2023-02-26T06:36:52;93166.22;;;15.60;37.19
12077;BME280;12420;42.676;23.262;2023-02-26T06:39:19;93121.28;;;15.45;36.67
12077;BME280;12420;42.676;23.262;2023-02-26T06:41:46;93152.69;;;15.67;36.60
12077;BME280;12420;42.676;23.262;2023-02-26T06:44:13;93142.56;;;15.71;36.55
12077;BME280;12420;42.676;23.262;2023-02-26T06:46:40;93147.41;;;15.71;36.64
12077;BME280;12420;42.676;23.262;2023-02-26T06:49:07;93161.44;;;15.82;36.24
12077;BME280;12420;42.676;23.262;2023-02-26T06:51:34;93111.91;;;15.61;35.81
12077;BME280;12420;42.676;23.262;2023-02-26T06:54:03;93192.13;;;15.82;35.71
12077;BME280;12420;42.676;23.262;2023-02-26T06:56:30;93106.22;;;15.81;35.62
12077;BME280;12420;42.676;23.262;2023-02-26T06:58:57;93135.72;;;15.84;35.41
12077;BME280;12420;42.676;23.262;2023-02-26T07:01:23;93152.75;;;16.00;35.58
12077;BME280;12420;42.676;23.262;2023-02-26T07:03:51;93056.94;;;15.74;35.21
12077;BME280;12420;42.676;23.262;2023-02-26T07:06:18;93124.28;;;16.01;35.08
12077;BME280;12420;42.676;23.262;2023-02-26T07:08:45;93136.94;;;16.14;34.31
12077;BME280;12420;42.676;23.262;2023-02-26T07:11:14;93159.41;;;16.16;35.11
12077;BME280;12420;42.676;23.262;2023-02-26T07:13:40;93128.41;;;16.00;34.88
12077;BME280;12420;42.676;23.262;2023-02-26T07:16:07;93086.88;;;15.95;35.12
12077;BME280;12420;42.676;23.262;2023-02-26T07:18:35;93110.63;;;16.17;35.00
12077;BME280;12420;42.676;23.262;2023-02-26T07:21:02;93161.72;;;16.20;35.46
12077;BME280;12420;42.676;23.262;2023-02-26T07:23:30;93089.19;;;15.98;34.64
12077;BME280;12420;42.676;23.262;2023-02-26T07:25:56;93143.59;;;16.42;35.14
12077;BME280;12420;42.676;23.262;2023-02-26T07:28:25;93164.34;;;16.39;34.68
12077;BME280;12420;42.676;23.262;2023-02-26T07:30:53;93112.25;;;16.32;35.18
12077;BME280;12420;42.676;23.262;2023-02-26T07:33:20;93110.56;;;16.39;34.24
12077;BME280;12420;42.676;23.262;2023-02-26T07:35:47;93130.94;;;16.30;35.00
12077;BME280;12420;42.676;23.262;2023-02-26T07:38:14;93129.00;;;16.32;34.87
12077;BME280;12420;42.676;23.262;2023-02-26T07:40:40;93188.78;;;16.50;35.35
12077;BME280;12420;42.676;23.262;2023-02-26T07:43:07;93179.09;;;16.63;34.63
12077;BME280;12420;42.676;23.262;2023-02-26T07:45:36;93178.88;;;16.59;34.90
12077;BME280;12420;42.676;23.262;2023-02-26T07:48:03;93204.72;;;16.60;34.79
12077;BME280;12420;42.676;23.262;2023-02-26T07:50:29;93133.56;;;16.61;34.31
12077;BME280;12420;42.676;23.262;2023-02-26T07:52:57;93130.53;;;16.57;34.63
12077;BME280;12420;42.676;23.262;2023-02-26T07:55:24;93167.50;;;16.79;34.34
12077;BME280;12420;42.676;23.262;2023-02-26T07:57:52;93142.38;;;16.45;34.48
12077;BME280;12420;42.676;23.262;2023-02-26T08:00:19;93109.13;;;16.95;34.46
12077;BME280;12420;42.676;23.262;2023-02-26T08:02:47;93132.94;;;16.96;34.09
12077;BME280;12420;42.676;23.262;2023-02-26T08:05:14;93159.28;;;16.92;33.52
12077;BME280;12420;42.676;23.262;2023-02-26T08:07:41;93157.22;;;16.93;34.07
12077;BME280;12420;42.676;23.262;2023-02-26T08:10:09;93181.19;;;17.08;33.80
12077;BME280;12420;42.676;23.262;2023-02-26T08:12:37;93192.47;;;16.98;34.60
12077;BME280;12420;42.676;23.262;2023-02-26T08:15:04;93161.69;;;16.86;33.98
12077;BME280;12420;42.676;23.262;2023-02-26T08:17:31;93115.81;;;16.89;34.73
12077;BME280;12420;42.676;23.262;2023-02-26T08:19:59;93155.88;;;16.82;34.69
12077;BME280;12420;42.676;23.262;2023-02-26T08:22:26;93138.31;;;16.70;34.45
12077;BME280;12420;42.676;23.262;2023-02-26T08:24:55;93122.03;;;16.55;34.78
12077;BME280;12420;42.676;23.262;2023-02-26T08:27:22;93149.19;;;16.87;34.36
12077;BME280;12420;42.676;23.262;2023-02-26T08:29:49;93135.41;;;16.68;34.62
12077;BME280;12420;42.676;23.262;2023-02-26T08:32:16;93159.78;;;17.01;34.71
12077;BME280;12420;42.676;23.262;2023-02-26T08:34:44;93197.69;;;17.04;34.11
12077;BME280;12420;42.676;23.262;2023-02-26T08:37:12;93174.56;;;16.80;34.64
12077;BME280;12420;42.676;23.262;2023-02-26T08:39:39;93200.63;;;17.06;35.00
12077;BME280;12420;42.676;23.262;2023-02-26T08:42:08;93177.75;;;17.09;34.53
12077;BME280;12420;42.676;23.262;2023-02-26T08:44:35;93168.53;;;16.95;34.64
12077;BME280;12420;42.676;23.262;2023-02-26T08:47:02;93189.69;;;17.22;34.65
12077;BME280;12420;42.676;23.262;2023-02-26T08:49:29;93173.53;;;17.20;33.98
12077;BME280;12420;42.676;23.262;2023-02-26T08:51:56;93211.84;;;17.53;34.14
12077;BME280;12420;42.676;23.262;2023-02-26T08:54:24;93215.84;;;17.50;33.83
12077;BME280;12420;42.676;23.262;2023-02-26T08:56:51;93199.66;;;17.60;33.44
12077;BME280;12420;42.676;23.262;2023-02-26T08:59:20;93135.00;;;17.07;33.08
12077;BME280;12420;42.676;23.262;2023-02-26T09:01:46;93208.19;;;17.62;32.97
12077;BME280;12420;42.676;23.262;2023-02-26T09:04:13;93191.41;;;17.62;32.38
12077;BME280;12420;42.676;23.262;2023-02-26T09:06:40;93207.84;;;17.56;32.85
12077;BME280;12420;42.676;23.262;2023-02-26T09:09:07;93199.06;;;17.73;33.21
12077;BME280;12420;42.676;23.262;2023-02-26T09:11:35;93187.38;;;17.65;32.78
12077;BME280;12420;42.676;23.262;2023-02-26T09:14:03;93235.56;;;17.87;32.57
12077;BME280;12420;42.676;23.262;2023-02-26T09:16:30;93210.47;;;18.01;32.59
12077;BME280;12420;42.676;23.262;2023-02-26T09:18:59;93209.13;;;18.14;31.44
12077;BME280;12420;42.676;23.262;2023-02-26T09:21:26;93216.66;;;18.11;31.31
12077;BME280;12420;42.676;23.262;2023-02-26T09:23:53;93232.47;;;18.30;31.10
12077;BME280;12420;42.676;23.262;2023-02-26T09:26:20;93201.97;;;18.48;30.20
12077;BME280;12420;42.676;23.262;2023-02-26T09:28:50;93218.47;;;18.68;29.92
12077;BME280;12420;42.676;23.262;2023-02-26T09:31:17;93215.88;;;18.72;29.92
12077;BME280;12420;42.676;23.262;2023-02-26T09:33:44;93182.47;;;18.50;29.17
12077;BME280;12420;42.676;23.262;2023-02-26T09:36:11;93233.69;;;18.64;29.43
12077;BME280;12420;42.676;23.262;2023-02-26T09:38:38;93233.84;;;18.92;29.72
12077;BME280;12420;42.676;23.262;2023-02-26T09:41:08;93226.78;;;18.91;28.53
12077;BME280;12420;42.676;23.262;2023-02-26T09:43:51;93241.13;;;18.97;29.06
12077;BME280;12420;42.676;23.262;2023-02-26T09:46:28;93242.69;;;19.00;29.15
12077;BME280;12420;42.676;23.262;2023-02-26T09:49:03;93231.81;;;18.81;29.29
12077;BME280;12420;42.676;23.262;2023-02-26T09:51:33;93272.91;;;18.76;29.46
12077;BME280;12420;42.676;23.262;2023-02-26T09:54:17;93225.28;;;18.64;29.76
12077;BME280;12420;42.676;23.262;2023-02-26T09:56:45;93251.84;;;18.75;30.22
12077;BME280;12420;42.676;23.262;2023-02-26T09:59:15;93238.59;;;18.90;29.90
12077;BME280;12420;42.676;23.262;2023-02-26T10:01:46;93271.47;;;18.75;30.70
12077;BME280;12420;42.676;23.262;2023-02-26T10:04:23;93214.13;;;18.53;30.56
12077;BME280;12420;42.676;23.262;2023-02-26T10:07:06;93217.53;;;18.51;30.31
12077;BME280;12420;42.676;23.262;2023-02-26T10:09:49;93225.06;;;18.60;30.50
12077;BME280;12420;42.676;23.262;2023-02-26T10:12:20;93191.06;;;18.29;30.97
12077;BME280;12420;42.676;23.262;2023-02-26T10:14:52;93257.97;;;18.60;30.79
12077;BME280;12420;42.676;23.262;2023-02-26T10:17:23;93202.84;;;18.39;30.46
12077;BME280;12420;42.676;23.262;2023-02-26T10:19:54;93213.47;;;18.29;31.25
12077;BME280;12420;42.676;23.262;2023-02-26T10:22:26;93161.06;;;18.06;31.07
12077;BME280;12420;42.676;23.262;2023-02-26T10:24:58;93216.78;;;18.62;31.81
12077;BME280;12420;42.676;23.262;2023-02-26T10:27:38;93220.22;;;18.49;30.99
12077;BME280;12420;42.676;23.262;2023-02-26T10:30:13;93174.03;;;18.25;31.78
12077;BME280;12420;42.676;23.262;2023-02-26T10:32:51;93165.00;;;18.26;31.68
12077;BME280;12420;42.676;23.262;2023-02-26T10:35:22;93204.09;;;18.61;31.35
12077;BME280;12420;42.676;23.262;2023-02-26T10:37:56;93181.84;;;18.52;31.71
12077;BME280;12420;42.676;23.262;2023-02-26T10:40:28;93194.16;;;18.47;32.43
12077;BME280;12420;42.676;23.262;2023-02-26T10:42:58;93186.59;;;18.49;32.29
12077;BME280;12420;42.676;23.262;2023-02-26T10:45:43;93175.91;;;18.46;32.48
12077;BME280;12420;42.676;23.262;2023-02-26T10:48:23;93101.50;;;17.79;32.47
12077;BME280;12420;42.676;23.262;2023-02-26T10:50:54;93187.47;;;18.14;32.85
12077;BME280;12420;42.676;23.262;2023-02-26T10:53:22;93161.19;;;17.96;33.75
12077;BME280;12420;42.676;23.262;2023-02-26T10:55:51;93160.34;;;18.05;33.75
12077;BME280;12420;42.676;23.262;2023-02-26T10:58:22;93126.41;;;17.75;33.97
12077;BME280;12420;42.676;23.262;2023-02-26T11:00:52;93128.75;;;17.67;34.23
12077;BME280;12420;42.676;23.262;2023-02-26T11:03:21;93176.25;;;18.14;34.08
12077;BME280;12420;42.676;23.262;2023-02-26T11:05:49;93181.88;;;18.14;34.20
12077;BME280;12420;42.676;23.262;2023-02-26T11:08:22;93144.63;;;18.12;34.60
12077;BME280;12420;42.676;23.262;2023-02-26T11:10:51;93147.75;;;18.18;34.69
12077;BME280;12420;42.676;23.262;2023-02-26T11:13:20;93143.13;;;18.22;33.40
12077;BME280;12420;42.676;23.262;2023-02-26T11:15:51;93120.19;;;18.00;33.73
12077;BME280;12420;42.676;23.262;2023-02-26T11:18:21;93149.38;;;18.09;34.00
12077;BME280;12420;42.676;23.262;2023-02-26T11:20:53;93138.72;;;17.94;34.46
12077;BME280;12420;42.676;23.262;2023-02-26T11:23:22;93161.91;;;18.08;34.87
12077;BME280;12420;42.676;23.262;2023-02-26T11:25:53;93125.91;;;17.91;34.20
12077;BME280;12420;42.676;23.262;2023-02-26T11:28:23;93136.84;;;17.98;35.12
12077;BME280;12420;42.676;23.262;2023-02-26T11:30:55;93113.03;;;17.86;35.18
12077;BME280;12420;42.676;23.262;2023-02-26T11:33:23;93144.31;;;17.94;35.63
12077;BME280;12420;42.676;23.262;2023-02-26T11:35:59;93143.59;;;17.82;36.33
12077;BME280;12420;42.676;23.262;2023-02-26T11:38:27;93127.78;;;17.86;36.30
12077;BME280;12420;42.676;23.262;2023-02-26T11:40:56;93096.53;;;17.66;36.91
12077;BME280;12420;42.676;23.262;2023-02-26T11:43:25;93130.59;;;17.86;36.86
12077;BME280;12420;42.676;23.262;2023-02-26T11:45:58;93092.34;;;17.18;38.03
12077;BME280;12420;42.676;23.262;2023-02-26T11:48:28;93143.75;;;17.48;37.94
12077;BME280;12420;42.676;23.262;2023-02-26T11:51:00;93146.91;;;17.31;38.38
12077;BME280;12420;42.676;23.262;2023-02-26T11:53:31;93126.72;;;17.32;39.28
12077;BME280;12420;42.676;23.262;2023-02-26T11:56:00;93158.59;;;17.16;39.26
12077;BME280;12420;42.676;23.262;2023-02-26T11:58:33;93133.88;;;16.88;40.44
12077;BME280;12420;42.676;23.262;2023-02-26T12:01:04;93160.00;;;16.81;41.17
12077;BME280;12420;42.676;23.262;2023-02-26T12:03:35;93198.16;;;16.88;41.01
12077;BME280;12420;42.676;23.262;2023-02-26T12:06:04;93197.56;;;17.02;42.43
12077;BME280;12420;42.676;23.262;2023-02-26T12:08:33;93193.66;;;16.83;43.28
12077;BME280;12420;42.676;23.262;2023-02-26T12:14:07;93190.25;;;16.97;42.49
12077;BME280;12420;42.676;23.262;2023-02-26T12:16:44;93216.34;;;17.34;41.88
12077;BME280;12420;42.676;23.262;2023-02-26T12:19:21;93191.13;;;16.87;40.89
12077;BME280;12420;42.676;23.262;2023-02-26T12:22:08;93210.84;;;17.25;40.84
12077;BME280;12420;42.676;23.262;2023-02-26T12:24:53;93198.56;;;17.18;42.18
12077;BME280;12420;42.676;23.262;2023-02-26T12:27:30;93227.34;;;17.09;41.83
12077;BME280;12420;42.676;23.262;2023-02-26T12:30:15;93250.84;;;17.27;42.05
12077;BME280;12420;42.676;23.262;2023-02-26T12:33:05;93191.94;;;16.78;42.15
12077;BME280;12420;42.676;23.262;2023-02-26T12:35:43;93201.94;;;16.93;42.21
12077;BME280;12420;42.676;23.262;2023-02-26T12:38:19;93246.59;;;16.81;41.92
12077;BME280;12420;42.676;23.262;2023-02-26T12:41:11;93151.09;;;16.73;41.47
12077;BME280;12420;42.676;23.262;2023-02-26T12:43:45;93265.34;;;17.35;41.65
12077;BME280;12420;42.676;23.262;2023-02-26T12:49:27;93226.09;;;16.88;41.27
12077;BME280;12420;42.676;23.262;2023-02-26T12:52:17;93311.38;;;17.79;41.67
12077;BME280;12420;42.676;23.262;2023-02-26T12:55:06;93317.44;;;17.64;42.12
12077;BME280;12420;42.676;23.262;2023-02-26T12:57:57;93303.06;;;17.70;41.94
12077;BME280;12420;42.676;23.262;2023-02-26T13:00:42;93283.84;;;17.64;41.40
12077;BME280;12420;42.676;23.262;2023-02-26T13:06:38;93303.31;;;17.62;41.58
12077;BME280;12420;42.676;23.262;2023-02-26T13:09:17;93270.72;;;17.43;41.56
12077;BME280;12420;42.676;23.262;2023-02-26T13:11:58;93305.50;;;17.64;41.96
12077;BME280;12420;42.676;23.262;2023-02-26T13:14:42;93318.66;;;17.61;41.92
12077;BME280;12420;42.676;23.262;2023-02-26T13:17:18;93320.97;;;17.76;42.06
12077;BME280;12420;42.676;23.262;2023-02-26T13:19:50;93328.78;;;17.90;42.06